sensor_id;sensor_type;location;lat;lon;timestamp;P1;durP1;ratioP1;P2;durP2;ratioP2
21032;SDS011;10675;47.976;7.824;2024-01-30T00:00:00;1.00;;;1.00;;
21032;SDS011;10675;47.976;7.824;2024-01-30T00:02:25;1.40;;;1.30;;
21032;SDS011;10675;47.976;7.824;2024-01-30T00:04:51;2.67;;;1.47;;
21032;SDS011;10675;47.976;7.824;2024-01-30T00:07:16;1.40;;;1.30;;
21032;SDS011;10675;47.976;7.824;2024-01-30T00:09:42;1.57;;;1.47;;
21032;SDS011;10675;47.976;7.824;2024-01-30T00:12:08;1.23;;;1.13;;
21032;SDS011;10675;47.976;7.824;2024-01-30T00:14:33;1.33;;;1.20;;
21032;SDS011;10675;47.976;7.824;2024-01-30T00:16:59;1.27;;;1.07;;
21032;SDS011;10675;47.976;7.824;2024-01-30T00:19:24;1.37;;;1.27;;
21032;SDS011;10675;47.976;7.824;2024-01-30T00:21:50;1.80;;;1.40;;
21032;SDS011;10675;47.976;7.824;2024-01-30T00:24:15;1.20;;;1.10;;
21032;SDS011;10675;47.976;7.824;2024-01-30T00:26:41;2.10;;;1.40;;
21032;SDS011;10675;47.976;7.824;2024-01-30T00:29:06;1.43;;;1.30;;
21032;SDS011;10675;47.976;7.824;2024-01-30T00:31:32;1.87;;;1.40;;
21032;SDS011;10675;47.976;7.824;2024-01-30T00:33:57;1.10;;;1.00;;
21032;SDS011;10675;47.976;7.824;2024-01-30T00:36:23;1.50;;;1.40;;
21032;SDS011;10675;47.976;7.824;2024-01-30T00:38:48;4.13;;;1.10;;
21032;SDS011;10675;47.976;7.824;2024-01-30T00:41:14;0.90;;;0.90;;
21032;SDS011;10675;47.976;7.824;2024-01-30T00:43:42;3.87;;;1.40;;
21032;SDS011;10675;47.976;7.824;2024-01-30T00:46:07;1.10;;;1.00;;
21032;SDS011;10675;47.976;7.824;2024-01-30T00:48:33;1.37;;;1.13;;
21032;SDS011;10675;47.976;7.824;2024-01-30T00:50:58;1.40;;;1.30;;
21032;SDS011;10675;47.976;7.824;2024-01-30T00:53:24;1.30;;;1.20;;
21032;SDS011;10675;47.976;7.824;2024-01-30T00:55:50;1.53;;;1.03;;
21032;SDS011;10675;47.976;7.824;2024-01-30T00:58:15;3.87;;;1.10;;
21032;SDS011;10675;47.976;7.824;2024-01-30T01:00:41;3.00;;;1.47;;
21032;SDS011;10675;47.976;7.824;2024-01-30T01:03:06;1.43;;;1.33;;
21032;SDS011;10675;47.976;7.824;2024-01-30T01:05:32;1.67;;;1.10;;
21032;SDS011;10675;47.976;7.824;2024-01-30T01:07:57;1.20;;;1.10;;
21032;SDS011;10675;47.976;7.824;2024-01-30T01:10:23;1.23;;;1.10;;
21032;SDS011;10675;47.976;7.824;2024-01-30T01:12:49;1.30;;;1.20;;
21032;SDS011;10675;47.976;7.824;2024-01-30T01:15:14;3.90;;;1.60;;
21032;SDS011;10675;47.976;7.824;2024-01-30T01:17:40;2.20;;;1.17;;
21032;SDS011;10675;47.976;7.824;2024-01-30T01:20:06;1.40;;;1.23;;
21032;SDS011;10675;47.976;7.824;2024-01-30T01:22:32;3.50;;;1.10;;
21032;SDS011;10675;47.976;7.824;2024-01-30T01:24:58;2.20;;;1.20;;
21032;SDS011;10675;47.976;7.824;2024-01-30T01:27:24;1.40;;;1.30;;
21032;SDS011;10675;47.976;7.824;2024-01-30T01:29:50;1.43;;;1.10;;
21032;SDS011;10675;47.976;7.824;2024-01-30T01:32:16;1.93;;;1.37;;
21032;SDS011;10675;47.976;7.824;2024-01-30T01:34:42;1.33;;;1.23;;
21032;SDS011;10675;47.976;7.824;2024-01-30T01:37:07;1.60;;;1.20;;
21032;SDS011;10675;47.976;7.824;2024-01-30T01:39:33;1.10;;;1.00;;
21032;SDS011;10675;47.976;7.824;2024-01-30T01:41:58;1.47;;;1.37;;
21032;SDS011;10675;47.976;7.824;2024-01-30T01:44:24;1.53;;;1.40;;
21032;SDS011;10675;47.976;7.824;2024-01-30T01:46:49;4.73;;;1.40;;
21032;SDS011;10675;47.976;7.824;2024-01-30T01:49:17;1.93;;;1.30;;
21032;SDS011;10675;47.976;7.824;2024-01-30T01:51:44;2.40;;;1.20;;
21032;SDS011;10675;47.976;7.824;2024-01-30T01:54:12;1.60;;;1.30;;
21032;SDS011;10675;47.976;7.824;2024-01-30T01:56:39;1.53;;;1.30;;
21032;SDS011;10675;47.976;7.824;2024-01-30T01:59:06;3.70;;;1.20;;
21032;SDS011;10675;47.976;7.824;2024-01-30T02:01:33;1.63;;;1.30;;
21032;SDS011;10675;47.976;7.824;2024-01-30T02:03:59;1.77;;;1.30;;
21032;SDS011;10675;47.976;7.824;2024-01-30T02:06:26;2.80;;;1.17;;
21032;SDS011;10675;47.976;7.824;2024-01-30T02:08:51;1.33;;;1.20;;
21032;SDS011;10675;47.976;7.824;2024-01-30T02:11:17;1.67;;;1.30;;
21032;SDS011;10675;47.976;7.824;2024-01-30T02:13:44;1.67;;;1.17;;
21032;SDS011;10675;47.976;7.824;2024-01-30T02:16:10;1.40;;;1.30;;
21032;SDS011;10675;47.976;7.824;2024-01-30T02:18:35;2.00;;;1.20;;
21032;SDS011;10675;47.976;7.824;2024-01-30T02:21:06;1.47;;;1.37;;
21032;SDS011;10675;47.976;7.824;2024-01-30T02:23:32;1.17;;;1.07;;
21032;SDS011;10675;47.976;7.824;2024-01-30T02:25:59;1.30;;;1.20;;
21032;SDS011;10675;47.976;7.824;2024-01-30T02:28:25;1.40;;;1.30;;
21032;SDS011;10675;47.976;7.824;2024-01-30T02:30:51;3.03;;;1.37;;
21032;SDS011;10675;47.976;7.824;2024-01-30T02:33:16;0.83;;;0.83;;
21032;SDS011;10675;47.976;7.824;2024-01-30T02:35:42;1.23;;;1.10;;
21032;SDS011;10675;47.976;7.824;2024-01-30T02:38:07;2.50;;;1.20;;
21032;SDS011;10675;47.976;7.824;2024-01-30T02:40:33;1.50;;;1.40;;
21032;SDS011;10675;47.976;7.824;2024-01-30T02:42:59;1.80;;;1.40;;
21032;SDS011;10675;47.976;7.824;2024-01-30T02:45:25;1.30;;;1.20;;
21032;SDS011;10675;47.976;7.824;2024-01-30T02:47:50;1.20;;;1.10;;
21032;SDS011;10675;47.976;7.824;2024-01-30T02:50:16;1.47;;;1.37;;
21032;SDS011;10675;47.976;7.824;2024-01-30T02:52:42;1.17;;;1.03;;
21032;SDS011;10675;47.976;7.824;2024-01-30T02:55:10;1.23;;;1.20;;
21032;SDS011;10675;47.976;7.824;2024-01-30T02:57:36;2.40;;;1.33;;
21032;SDS011;10675;47.976;7.824;2024-01-30T03:00:02;1.57;;;1.13;;
21032;SDS011;10675;47.976;7.824;2024-01-30T03:02:30;2.17;;;1.60;;
21032;SDS011;10675;47.976;7.824;2024-01-30T03:04:56;1.67;;;1.40;;
21032;SDS011;10675;47.976;7.824;2024-01-30T03:07:21;1.30;;;1.20;;
21032;SDS011;10675;47.976;7.824;2024-01-30T03:09:47;1.87;;;1.40;;
21032;SDS011;10675;47.976;7.824;2024-01-30T03:12:13;2.53;;;1.20;;
21032;SDS011;10675;47.976;7.824;2024-01-30T03:14:38;1.30;;;1.20;;
21032;SDS011;10675;47.976;7.824;2024-01-30T03:17:04;3.53;;;1.30;;
21032;SDS011;10675;47.976;7.824;2024-01-30T03:19:29;2.10;;;1.13;;
21032;SDS011;10675;47.976;7.824;2024-01-30T03:21:55;1.17;;;1.10;;
21032;SDS011;10675;47.976;7.824;2024-01-30T03:24:20;1.40;;;1.30;;
21032;SDS011;10675;47.976;7.824;2024-01-30T03:26:46;1.20;;;1.10;;
21032;SDS011;10675;47.976;7.824;2024-01-30T03:29:11;2.10;;;1.50;;
21032;SDS011;10675;47.976;7.824;2024-01-30T03:31:37;1.77;;;1.30;;
21032;SDS011;10675;47.976;7.824;2024-01-30T03:34:03;1.53;;;1.43;;
21032;SDS011;10675;47.976;7.824;2024-01-30T03:36:29;1.43;;;1.33;;
21032;SDS011;10675;47.976;7.824;2024-01-30T03:38:57;2.13;;;1.40;;
21032;SDS011;10675;47.976;7.824;2024-01-30T03:41:23;1.53;;;1.33;;
21032;SDS011;10675;47.976;7.824;2024-01-30T03:43:49;1.60;;;1.50;;
21032;SDS011;10675;47.976;7.824;2024-01-30T03:46:14;1.80;;;1.30;;
21032;SDS011;10675;47.976;7.824;2024-01-30T03:48:40;1.60;;;1.33;;
21032;SDS011;10675;47.976;7.824;2024-01-30T03:51:05;2.57;;;1.47;;
21032;SDS011;10675;47.976;7.824;2024-01-30T03:53:31;2.10;;;1.67;;
21032;SDS011;10675;47.976;7.824;2024-01-30T03:55:56;4.00;;;1.40;;
21032;SDS011;10675;47.976;7.824;2024-01-30T03:58:22;2.13;;;1.60;;
21032;SDS011;10675;47.976;7.824;2024-01-30T04:00:48;1.43;;;1.10;;
21032;SDS011;10675;47.976;7.824;2024-01-30T04:03:16;2.33;;;1.50;;
21032;SDS011;10675;47.976;7.824;2024-01-30T04:05:42;1.93;;;1.37;;
21032;SDS011;10675;47.976;7.824;2024-01-30T04:08:08;1.43;;;1.30;;
21032;SDS011;10675;47.976;7.824;2024-01-30T04:10:34;1.80;;;1.50;;
21032;SDS011;10675;47.976;7.824;2024-01-30T04:13:00;4.17;;;1.80;;
21032;SDS011;10675;47.976;7.824;2024-01-30T04:15:25;2.37;;;1.57;;
21032;SDS011;10675;47.976;7.824;2024-01-30T04:17:51;3.27;;;1.17;;
21032;SDS011;10675;47.976;7.824;2024-01-30T04:20:17;1.97;;;1.40;;
21032;SDS011;10675;47.976;7.824;2024-01-30T04:22:43;1.60;;;1.50;;
21032;SDS011;10675;47.976;7.824;2024-01-30T04:25:09;4.80;;;1.67;;
21032;SDS011;10675;47.976;7.824;2024-01-30T04:27:35;2.60;;;1.80;;
21032;SDS011;10675;47.976;7.824;2024-01-30T04:30:01;1.77;;;1.40;;
21032;SDS011;10675;47.976;7.824;2024-01-30T04:32:26;2.23;;;1.60;;
21032;SDS011;10675;47.976;7.824;2024-01-30T04:34:52;1.50;;;1.40;;
21032;SDS011;10675;47.976;7.824;2024-01-30T04:37:17;2.47;;;1.60;;
21032;SDS011;10675;47.976;7.824;2024-01-30T04:39:43;2.20;;;2.00;;
21032;SDS011;10675;47.976;7.824;2024-01-30T04:42:08;1.80;;;1.70;;
21032;SDS011;10675;47.976;7.824;2024-01-30T04:44:34;2.40;;;2.00;;
21032;SDS011;10675;47.976;7.824;2024-01-30T04:47:00;2.50;;;1.73;;
21032;SDS011;10675;47.976;7.824;2024-01-30T04:49:26;1.93;;;1.73;;
21032;SDS011;10675;47.976;7.824;2024-01-30T04:51:52;2.90;;;2.00;;
21032;SDS011;10675;47.976;7.824;2024-01-30T04:54:18;1.90;;;1.70;;
21032;SDS011;10675;47.976;7.824;2024-01-30T04:56:43;1.80;;;1.60;;
21032;SDS011;10675;47.976;7.824;2024-01-30T04:59:09;1.73;;;1.57;;
21032;SDS011;10675;47.976;7.824;2024-01-30T05:01:34;2.20;;;1.70;;
21032;SDS011;10675;47.976;7.824;2024-01-30T05:04:00;1.70;;;1.60;;
21032;SDS011;10675;47.976;7.824;2024-01-30T05:06:26;2.70;;;1.70;;
21032;SDS011;10675;47.976;7.824;2024-01-30T05:08:52;2.27;;;1.50;;
21032;SDS011;10675;47.976;7.824;2024-01-30T05:11:18;2.27;;;1.60;;
21032;SDS011;10675;47.976;7.824;2024-01-30T05:13:43;2.30;;;1.77;;
21032;SDS011;10675;47.976;7.824;2024-01-30T05:16:09;4.43;;;1.90;;
21032;SDS011;10675;47.976;7.824;2024-01-30T05:18:34;1.63;;;1.53;;
21032;SDS011;10675;47.976;7.824;2024-01-30T05:21:00;1.60;;;1.50;;
21032;SDS011;10675;47.976;7.824;2024-01-30T05:23:26;1.80;;;1.70;;
21032;SDS011;10675;47.976;7.824;2024-01-30T05:25:52;2.10;;;1.87;;
21032;SDS011;10675;47.976;7.824;2024-01-30T05:28:18;1.70;;;1.60;;
21032;SDS011;10675;47.976;7.824;2024-01-30T05:30:43;3.10;;;2.07;;
21032;SDS011;10675;47.976;7.824;2024-01-30T05:33:09;2.17;;;1.70;;
21032;SDS011;10675;47.976;7.824;2024-01-30T05:35:37;3.87;;;1.60;;
21032;SDS011;10675;47.976;7.824;2024-01-30T05:38:02;2.50;;;1.70;;
21032;SDS011;10675;47.976;7.824;2024-01-30T05:40:29;2.33;;;1.83;;
21032;SDS011;10675;47.976;7.824;2024-01-30T05:42:55;2.33;;;1.83;;
21032;SDS011;10675;47.976;7.824;2024-01-30T05:45:21;2.10;;;1.70;;
21032;SDS011;10675;47.976;7.824;2024-01-30T05:47:48;1.90;;;1.80;;
21032;SDS011;10675;47.976;7.824;2024-01-30T05:50:14;1.63;;;1.53;;
21032;SDS011;10675;47.976;7.824;2024-01-30T05:52:39;3.03;;;1.77;;
21032;SDS011;10675;47.976;7.824;2024-01-30T05:55:05;2.03;;;1.70;;
21032;SDS011;10675;47.976;7.824;2024-01-30T05:57:31;2.37;;;1.63;;
21032;SDS011;10675;47.976;7.824;2024-01-30T05:59:57;3.27;;;1.93;;
21032;SDS011;10675;47.976;7.824;2024-01-30T06:02:22;2.80;;;1.77;;
21032;SDS011;10675;47.976;7.824;2024-01-30T06:04:48;2.73;;;1.97;;
21032;SDS011;10675;47.976;7.824;2024-01-30T06:07:13;2.73;;;1.47;;
21032;SDS011;10675;47.976;7.824;2024-01-30T06:09:39;2.80;;;1.87;;
21032;SDS011;10675;47.976;7.824;2024-01-30T06:12:05;3.40;;;1.70;;
21032;SDS011;10675;47.976;7.824;2024-01-30T06:14:31;4.63;;;1.70;;
21032;SDS011;10675;47.976;7.824;2024-01-30T06:16:58;2.70;;;1.83;;
21032;SDS011;10675;47.976;7.824;2024-01-30T06:19:24;2.13;;;1.70;;
21032;SDS011;10675;47.976;7.824;2024-01-30T06:21:49;2.87;;;1.90;;
21032;SDS011;10675;47.976;7.824;2024-01-30T06:24:15;2.63;;;1.63;;
21032;SDS011;10675;47.976;7.824;2024-01-30T06:26:40;2.57;;;1.80;;
21032;SDS011;10675;47.976;7.824;2024-01-30T06:29:06;3.20;;;1.60;;
21032;SDS011;10675;47.976;7.824;2024-01-30T06:31:32;3.17;;;2.07;;
21032;SDS011;10675;47.976;7.824;2024-01-30T06:33:58;2.03;;;1.90;;
21032;SDS011;10675;47.976;7.824;2024-01-30T06:36:23;1.87;;;1.60;;
21032;SDS011;10675;47.976;7.824;2024-01-30T06:38:49;3.17;;;1.80;;
21032;SDS011;10675;47.976;7.824;2024-01-30T06:41:14;5.57;;;2.23;;
21032;SDS011;10675;47.976;7.824;2024-01-30T06:43:40;4.10;;;1.90;;
21032;SDS011;10675;47.976;7.824;2024-01-30T06:46:05;2.20;;;1.90;;
21032;SDS011;10675;47.976;7.824;2024-01-30T06:48:31;2.97;;;2.20;;
21032;SDS011;10675;47.976;7.824;2024-01-30T06:50:57;4.87;;;2.53;;
21032;SDS011;10675;47.976;7.824;2024-01-30T06:53:22;2.03;;;1.70;;
21032;SDS011;10675;47.976;7.824;2024-01-30T06:55:48;3.17;;;2.20;;
21032;SDS011;10675;47.976;7.824;2024-01-30T06:58:13;2.80;;;2.00;;
21032;SDS011;10675;47.976;7.824;2024-01-30T07:00:39;2.33;;;2.07;;
21032;SDS011;10675;47.976;7.824;2024-01-30T07:03:05;3.07;;;1.93;;
21032;SDS011;10675;47.976;7.824;2024-01-30T07:05:31;2.30;;;2.03;;
21032;SDS011;10675;47.976;7.824;2024-01-30T07:07:57;2.20;;;1.90;;
21032;SDS011;10675;47.976;7.824;2024-01-30T07:10:22;2.20;;;2.00;;
21032;SDS011;10675;47.976;7.824;2024-01-30T07:12:48;3.37;;;2.40;;
21032;SDS011;10675;47.976;7.824;2024-01-30T07:15:13;2.33;;;2.13;;
21032;SDS011;10675;47.976;7.824;2024-01-30T07:17:43;4.57;;;2.10;;
21032;SDS011;10675;47.976;7.824;2024-01-30T07:20:08;3.60;;;1.93;;
21032;SDS011;10675;47.976;7.824;2024-01-30T07:22:34;2.70;;;2.00;;
21032;SDS011;10675;47.976;7.824;2024-01-30T07:25:00;2.80;;;2.00;;
21032;SDS011;10675;47.976;7.824;2024-01-30T07:27:25;3.63;;;2.47;;
21032;SDS011;10675;47.976;7.824;2024-01-30T07:29:51;4.63;;;2.23;;
21032;SDS011;10675;47.976;7.824;2024-01-30T07:32:16;4.70;;;2.53;;
21032;SDS011;10675;47.976;7.824;2024-01-30T07:34:43;3.10;;;2.07;;
21032;SDS011;10675;47.976;7.824;2024-01-30T07:37:09;2.13;;;1.83;;
21032;SDS011;10675;47.976;7.824;2024-01-30T07:39:35;1.97;;;1.73;;
21032;SDS011;10675;47.976;7.824;2024-01-30T07:42:01;4.17;;;2.07;;
21032;SDS011;10675;47.976;7.824;2024-01-30T07:44:26;3.40;;;2.10;;
21032;SDS011;10675;47.976;7.824;2024-01-30T07:46:52;1.77;;;1.63;;
21032;SDS011;10675;47.976;7.824;2024-01-30T07:49:17;2.97;;;2.40;;
21032;SDS011;10675;47.976;7.824;2024-01-30T07:51:43;4.43;;;2.47;;
21032;SDS011;10675;47.976;7.824;2024-01-30T07:54:10;3.53;;;2.20;;
21032;SDS011;10675;47.976;7.824;2024-01-30T07:56:35;2.93;;;1.90;;
21032;SDS011;10675;47.976;7.824;2024-01-30T07:59:01;2.53;;;1.90;;
21032;SDS011;10675;47.976;7.824;2024-01-30T08:01:26;3.67;;;2.17;;
21032;SDS011;10675;47.976;7.824;2024-01-30T08:03:52;2.90;;;2.47;;
21032;SDS011;10675;47.976;7.824;2024-01-30T08:06:18;6.70;;;2.13;;
21032;SDS011;10675;47.976;7.824;2024-01-30T08:08:44;4.37;;;2.10;;
21032;SDS011;10675;47.976;7.824;2024-01-30T08:11:10;3.03;;;2.20;;
21032;SDS011;10675;47.976;7.824;2024-01-30T08:13:36;2.73;;;2.10;;
21032;SDS011;10675;47.976;7.824;2024-01-30T08:16:01;3.90;;;2.13;;
21032;SDS011;10675;47.976;7.824;2024-01-30T08:18:27;2.30;;;2.10;;
21032;SDS011;10675;47.976;7.824;2024-01-30T08:20:52;4.23;;;2.10;;
21032;SDS011;10675;47.976;7.824;2024-01-30T08:23:18;2.27;;;2.07;;
21032;SDS011;10675;47.976;7.824;2024-01-30T08:25:43;3.40;;;2.50;;
21032;SDS011;10675;47.976;7.824;2024-01-30T08:28:09;2.03;;;1.70;;
21032;SDS011;10675;47.976;7.824;2024-01-30T08:30:34;2.93;;;2.20;;
21032;SDS011;10675;47.976;7.824;2024-01-30T08:33:00;3.97;;;2.00;;
21032;SDS011;10675;47.976;7.824;2024-01-30T08:35:26;2.67;;;1.97;;
21032;SDS011;10675;47.976;7.824;2024-01-30T08:37:51;3.60;;;2.20;;
21032;SDS011;10675;47.976;7.824;2024-01-30T08:40:17;2.07;;;1.90;;
21032;SDS011;10675;47.976;7.824;2024-01-30T08:42:42;2.03;;;1.80;;
21032;SDS011;10675;47.976;7.824;2024-01-30T08:45:08;2.83;;;2.03;;
21032;SDS011;10675;47.976;7.824;2024-01-30T08:47:34;3.33;;;2.10;;
21032;SDS011;10675;47.976;7.824;2024-01-30T08:50:00;2.93;;;1.77;;
21032;SDS011;10675;47.976;7.824;2024-01-30T08:52:25;2.30;;;2.10;;
21032;SDS011;10675;47.976;7.824;2024-01-30T08:54:51;3.90;;;1.80;;
21032;SDS011;10675;47.976;7.824;2024-01-30T08:57:17;1.77;;;1.67;;
21032;SDS011;10675;47.976;7.824;2024-01-30T08:59:42;2.07;;;1.90;;
21032;SDS011;10675;47.976;7.824;2024-01-30T09:02:10;2.90;;;1.93;;
21032;SDS011;10675;47.976;7.824;2024-01-30T09:04:38;2.47;;;1.90;;
21032;SDS011;10675;47.976;7.824;2024-01-30T09:07:03;2.17;;;1.90;;
21032;SDS011;10675;47.976;7.824;2024-01-30T09:09:33;2.07;;;1.67;;
21032;SDS011;10675;47.976;7.824;2024-01-30T09:11:59;2.17;;;1.60;;
21032;SDS011;10675;47.976;7.824;2024-01-30T09:14:29;3.97;;;1.90;;
21032;SDS011;10675;47.976;7.824;2024-01-30T09:16:55;2.73;;;1.80;;
21032;SDS011;10675;47.976;7.824;2024-01-30T09:19:21;3.30;;;1.90;;
21032;SDS011;10675;47.976;7.824;2024-01-30T09:21:46;2.53;;;1.60;;
21032;SDS011;10675;47.976;7.824;2024-01-30T09:24:12;3.40;;;1.90;;
21032;SDS011;10675;47.976;7.824;2024-01-30T09:26:37;2.00;;;1.80;;
21032;SDS011;10675;47.976;7.824;2024-01-30T09:29:03;5.13;;;2.20;;
21032;SDS011;10675;47.976;7.824;2024-01-30T09:31:28;3.30;;;1.93;;
21032;SDS011;10675;47.976;7.824;2024-01-30T09:33:54;2.90;;;1.70;;
21032;SDS011;10675;47.976;7.824;2024-01-30T09:36:20;3.00;;;1.80;;
21032;SDS011;10675;47.976;7.824;2024-01-30T09:38:45;2.40;;;1.80;;
21032;SDS011;10675;47.976;7.824;2024-01-30T09:41:11;2.07;;;1.60;;
21032;SDS011;10675;47.976;7.824;2024-01-30T09:43:38;5.53;;;1.60;;
21032;SDS011;10675;47.976;7.824;2024-01-30T09:46:06;2.13;;;1.90;;
21032;SDS011;10675;47.976;7.824;2024-01-30T09:48:36;4.27;;;1.93;;
21032;SDS011;10675;47.976;7.824;2024-01-30T09:51:02;2.13;;;1.70;;
21032;SDS011;10675;47.976;7.824;2024-01-30T09:53:28;2.17;;;1.87;;
21032;SDS011;10675;47.976;7.824;2024-01-30T09:55:54;4.27;;;2.00;;
21032;SDS011;10675;47.976;7.824;2024-01-30T09:58:20;3.33;;;1.90;;
21032;SDS011;10675;47.976;7.824;2024-01-30T10:00:45;2.43;;;1.60;;
21032;SDS011;10675;47.976;7.824;2024-01-30T10:03:11;4.53;;;1.83;;
21032;SDS011;10675;47.976;7.824;2024-01-30T10:05:36;1.80;;;1.70;;
21032;SDS011;10675;47.976;7.824;2024-01-30T10:08:06;2.20;;;1.93;;
21032;SDS011;10675;47.976;7.824;2024-01-30T10:10:35;2.23;;;1.80;;
21032;SDS011;10675;47.976;7.824;2024-01-30T10:13:01;3.47;;;1.80;;
21032;SDS011;10675;47.976;7.824;2024-01-30T10:15:27;2.47;;;1.80;;
21032;SDS011;10675;47.976;7.824;2024-01-30T10:17:54;2.47;;;1.80;;
21032;SDS011;10675;47.976;7.824;2024-01-30T10:20:19;3.70;;;2.07;;
21032;SDS011;10675;47.976;7.824;2024-01-30T10:22:47;1.70;;;1.60;;
21032;SDS011;10675;47.976;7.824;2024-01-30T10:25:13;1.57;;;1.37;;
21032;SDS011;10675;47.976;7.824;2024-01-30T10:27:41;1.60;;;1.50;;
21032;SDS011;10675;47.976;7.824;2024-01-30T10:30:07;1.93;;;1.50;;
21032;SDS011;10675;47.976;7.824;2024-01-30T10:32:33;2.67;;;1.70;;
21032;SDS011;10675;47.976;7.824;2024-01-30T10:34:58;2.03;;;1.80;;
21032;SDS011;10675;47.976;7.824;2024-01-30T10:37:25;2.07;;;1.50;;
21032;SDS011;10675;47.976;7.824;2024-01-30T10:39:51;1.87;;;1.73;;
21032;SDS011;10675;47.976;7.824;2024-01-30T10:42:20;2.00;;;1.70;;
21032;SDS011;10675;47.976;7.824;2024-01-30T10:47:17;2.13;;;1.77;;
21032;SDS011;10675;47.976;7.824;2024-01-30T10:49:48;2.63;;;1.70;;
21032;SDS011;10675;47.976;7.824;2024-01-30T10:52:15;1.63;;;1.53;;
21032;SDS011;10675;47.976;7.824;2024-01-30T10:54:42;1.60;;;1.50;;
21032;SDS011;10675;47.976;7.824;2024-01-30T10:57:09;1.60;;;1.50;;
21032;SDS011;10675;47.976;7.824;2024-01-30T10:59:36;2.40;;;1.90;;
21032;SDS011;10675;47.976;7.824;2024-01-30T11:02:02;1.60;;;1.50;;
21032;SDS011;10675;47.976;7.824;2024-01-30T11:04:35;2.10;;;1.67;;
21032;SDS011;10675;47.976;7.824;2024-01-30T11:07:27;1.70;;;1.60;;
21032;SDS011;10675;47.976;7.824;2024-01-30T11:09:52;3.37;;;1.70;;
21032;SDS011;10675;47.976;7.824;2024-01-30T11:12:27;2.00;;;1.80;;
21032;SDS011;10675;47.976;7.824;2024-01-30T11:15:07;1.60;;;1.50;;
21032;SDS011;10675;47.976;7.824;2024-01-30T11:20:36;1.60;;;1.50;;
21032;SDS011;10675;47.976;7.824;2024-01-30T11:23:01;1.70;;;1.60;;
21032;SDS011;10675;47.976;7.824;2024-01-30T11:25:31;2.30;;;1.70;;
21032;SDS011;10675;47.976;7.824;2024-01-30T11:27:57;2.10;;;1.63;;
21032;SDS011;10675;47.976;7.824;2024-01-30T11:30:26;3.37;;;1.80;;
21032;SDS011;10675;47.976;7.824;2024-01-30T11:33:04;3.13;;;1.63;;
21032;SDS011;10675;47.976;7.824;2024-01-30T11:35:33;1.90;;;1.60;;
21032;SDS011;10675;47.976;7.824;2024-01-30T11:38:00;2.93;;;1.60;;
21032;SDS011;10675;47.976;7.824;2024-01-30T11:40:27;1.70;;;1.60;;
21032;SDS011;10675;47.976;7.824;2024-01-30T11:42:54;1.73;;;1.63;;
21032;SDS011;10675;47.976;7.824;2024-01-30T11:45:21;1.97;;;1.60;;
21032;SDS011;10675;47.976;7.824;2024-01-30T11:47:46;1.70;;;1.60;;
21032;SDS011;10675;47.976;7.824;2024-01-30T11:50:12;1.70;;;1.50;;
21032;SDS011;10675;47.976;7.824;2024-01-30T11:52:38;1.60;;;1.50;;
21032;SDS011;10675;47.976;7.824;2024-01-30T11:55:04;2.13;;;1.63;;
21032;SDS011;10675;47.976;7.824;2024-01-30T11:57:31;1.87;;;1.60;;
21032;SDS011;10675;47.976;7.824;2024-01-30T11:59:56;2.37;;;1.63;;
21032;SDS011;10675;47.976;7.824;2024-01-30T12:02:22;1.87;;;1.67;;
21032;SDS011;10675;47.976;7.824;2024-01-30T12:04:48;1.70;;;1.60;;
21032;SDS011;10675;47.976;7.824;2024-01-30T12:07:13;1.83;;;1.73;;
21032;SDS011;10675;47.976;7.824;2024-01-30T12:09:42;1.70;;;1.40;;
21032;SDS011;10675;47.976;7.824;2024-01-30T12:12:07;2.13;;;1.57;;
21032;SDS011;10675;47.976;7.824;2024-01-30T12:14:37;2.50;;;1.50;;
21032;SDS011;10675;47.976;7.824;2024-01-30T12:17:04;2.03;;;1.63;;
21032;SDS011;10675;47.976;7.824;2024-01-30T12:19:30;2.37;;;1.63;;
21032;SDS011;10675;47.976;7.824;2024-01-30T12:21:56;6.37;;;1.73;;
21032;SDS011;10675;47.976;7.824;2024-01-30T12:24:23;2.03;;;1.80;;
21032;SDS011;10675;47.976;7.824;2024-01-30T12:26:50;1.93;;;1.73;;
21032;SDS011;10675;47.976;7.824;2024-01-30T12:29:16;2.33;;;1.80;;
21032;SDS011;10675;47.976;7.824;2024-01-30T12:31:42;4.07;;;2.00;;
21032;SDS011;10675;47.976;7.824;2024-01-30T12:34:09;4.03;;;1.70;;
21032;SDS011;10675;47.976;7.824;2024-01-30T12:36:34;3.00;;;2.10;;
21032;SDS011;10675;47.976;7.824;2024-01-30T12:39:00;2.80;;;1.73;;
21032;SDS011;10675;47.976;7.824;2024-01-30T12:41:26;1.90;;;1.67;;
21032;SDS011;10675;47.976;7.824;2024-01-30T12:43:54;2.23;;;1.93;;
21032;SDS011;10675;47.976;7.824;2024-01-30T12:46:24;3.23;;;1.50;;
21032;SDS011;10675;47.976;7.824;2024-01-30T12:48:52;1.53;;;1.40;;
21032;SDS011;10675;47.976;7.824;2024-01-30T12:51:18;2.37;;;1.70;;
21032;SDS011;10675;47.976;7.824;2024-01-30T12:53:44;3.50;;;1.87;;
21032;SDS011;10675;47.976;7.824;2024-01-30T12:56:11;2.40;;;1.73;;
21032;SDS011;10675;47.976;7.824;2024-01-30T12:58:37;1.93;;;1.57;;
21032;SDS011;10675;47.976;7.824;2024-01-30T13:01:02;1.57;;;1.43;;
21032;SDS011;10675;47.976;7.824;2024-01-30T13:03:28;2.63;;;1.70;;
21032;SDS011;10675;47.976;7.824;2024-01-30T13:05:54;2.70;;;2.00;;
21032;SDS011;10675;47.976;7.824;2024-01-30T13:08:20;3.27;;;2.10;;
21032;SDS011;10675;47.976;7.824;2024-01-30T13:10:46;2.17;;;1.63;;
21032;SDS011;10675;47.976;7.824;2024-01-30T13:13:12;3.47;;;1.70;;
21032;SDS011;10675;47.976;7.824;2024-01-30T13:15:37;3.37;;;1.77;;
21032;SDS011;10675;47.976;7.824;2024-01-30T13:18:03;2.20;;;1.63;;
21032;SDS011;10675;47.976;7.824;2024-01-30T13:20:30;3.00;;;1.70;;
21032;SDS011;10675;47.976;7.824;2024-01-30T13:22:55;2.10;;;1.30;;
21032;SDS011;10675;47.976;7.824;2024-01-30T13:25:21;1.77;;;1.67;;
21032;SDS011;10675;47.976;7.824;2024-01-30T13:27:46;3.33;;;2.97;;
21032;SDS011;10675;47.976;7.824;2024-01-30T13:30:12;5.30;;;2.13;;
21032;SDS011;10675;47.976;7.824;2024-01-30T13:32:38;1.90;;;1.70;;
21032;SDS011;10675;47.976;7.824;2024-01-30T13:35:03;2.07;;;1.60;;
21032;SDS011;10675;47.976;7.824;2024-01-30T13:37:29;1.70;;;1.60;;
21032;SDS011;10675;47.976;7.824;2024-01-30T13:39:55;2.63;;;1.60;;
21032;SDS011;10675;47.976;7.824;2024-01-30T13:42:21;3.73;;;2.00;;
21032;SDS011;10675;47.976;7.824;2024-01-30T13:44:47;2.40;;;1.70;;
21032;SDS011;10675;47.976;7.824;2024-01-30T13:47:13;1.83;;;1.63;;
21032;SDS011;10675;47.976;7.824;2024-01-30T13:49:39;2.13;;;1.60;;
21032;SDS011;10675;47.976;7.824;2024-01-30T13:52:04;1.90;;;1.70;;
21032;SDS011;10675;47.976;7.824;2024-01-30T13:54:30;2.83;;;1.83;;
21032;SDS011;10675;47.976;7.824;2024-01-30T13:56:56;2.20;;;1.60;;
21032;SDS011;10675;47.976;7.824;2024-01-30T13:59:22;4.27;;;2.00;;
21032;SDS011;10675;47.976;7.824;2024-01-30T14:01:50;3.17;;;1.87;;
21032;SDS011;10675;47.976;7.824;2024-01-30T14:04:16;2.70;;;2.03;;
21032;SDS011;10675;47.976;7.824;2024-01-30T14:06:41;3.50;;;1.90;;
21032;SDS011;10675;47.976;7.824;2024-01-30T14:09:07;3.03;;;2.37;;
21032;SDS011;10675;47.976;7.824;2024-01-30T14:11:33;2.47;;;1.97;;
21032;SDS011;10675;47.976;7.824;2024-01-30T14:13:58;3.10;;;2.10;;
21032;SDS011;10675;47.976;7.824;2024-01-30T14:16:24;2.73;;;1.90;;
21032;SDS011;10675;47.976;7.824;2024-01-30T14:18:50;3.97;;;2.00;;
21032;SDS011;10675;47.976;7.824;2024-01-30T14:21:15;4.63;;;2.10;;
21032;SDS011;10675;47.976;7.824;2024-01-30T14:23:41;3.17;;;2.33;;
21032;SDS011;10675;47.976;7.824;2024-01-30T14:26:06;2.27;;;2.00;;
21032;SDS011;10675;47.976;7.824;2024-01-30T14:28:32;2.30;;;2.10;;
21032;SDS011;10675;47.976;7.824;2024-01-30T14:30:58;6.70;;;2.43;;
21032;SDS011;10675;47.976;7.824;2024-01-30T14:33:24;4.63;;;2.30;;
21032;SDS011;10675;47.976;7.824;2024-01-30T14:35:49;3.40;;;2.00;;
21032;SDS011;10675;47.976;7.824;2024-01-30T14:38:15;2.30;;;2.10;;
21032;SDS011;10675;47.976;7.824;2024-01-30T14:40:41;4.30;;;2.20;;
21032;SDS011;10675;47.976;7.824;2024-01-30T14:43:06;3.57;;;2.40;;
21032;SDS011;10675;47.976;7.824;2024-01-30T14:45:32;4.17;;;2.40;;